Latest Coastal Weather Observations for Proserpine

IDQ60701

Issued at 12:12 pm EST Tuesday 28 April 2015 (issued every 10 minutes, with the page automatically refreshed every 10 minutes)

About coastal observations | Map of coastal stations | Coastal observations for QLD | Marine services | Other Formats
Station Details ID: 033247 Name: PROSERPINE AIRPORT Lat: -20.49 Lon: 148.56 Height: 19.7 m
Data from the previous 72 hours. | See also: Recent months at Proserpine
Date/Time
EST
Temp

°C
Wind Pressure Rain
since 9am
mm
Weather Cloud Vis
km
Sea
Height
m
Swell
Dir
 
Speed
knots
Gust
knots
hPa Trend Height
m
Period
s
Dir
28/12:00pm 25.9 ESE 12 17 1018.3 - 0.0 - - 10 - - - -
28/11:30am 26.3 ESE 11 15 1018.8 - 0.0 - - 10 - - - -
28/11:00am 26.5 ESE 9 14 1019.5 - 0.0 - - 10 - - - -
28/10:30am 25.2 ESE 11 16 1019.8 - 0.0 - - 10 - - - -
28/10:00am 24.4 ESE 6 10 1019.8 - 0.0 - - 10 - - - -
28/09:30am 22.8 ESE 4 6 1020.0 - 0.0 - - 10 - - - -
28/09:00am 21.4 E 1 4 1019.8 - 0.0 - - 10 - - - -
28/08:30am 18.4 N 1 4 1019.6 - 0.0 - - 10 - - - -
28/08:00am 16.0 CALM 0 0 1019.4 - 0.0 - - 10 - - - -
28/07:30am 13.0 SW 2 4 1019.0 - 0.0 - - 10 - - - -
28/07:00am 10.7 SSW 4 5 1018.8 - 0.0 - - 10 - - - -
28/06:30am 8.4 CALM 0 0 1018.5 - 0.0 - - 10 - - - -
28/06:00am 8.3 CALM 0 0 1018.3 - 0.0 - - 10 - - - -
28/05:30am 9.2 CALM 0 0 1017.8 - 0.0 - - 10 - - - -
28/05:00am 10.2 CALM 0 0 1017.6 - 0.0 - - 10 - - - -
28/04:30am 10.8 SW 5 6 1017.3 - 0.0 - - 10 - - - -
28/04:00am 10.4 SW 5 5 1017.3 - 0.0 - - 10 - - - -
28/03:30am 10.6 SW 4 5 1017.5 - 0.0 - - 10 - - - -
28/03:00am 11.2 SW 3 3 1017.7 - 0.0 - - 10 - - - -
28/02:30am 11.5 SSW 3 3 1017.7 - 0.0 - - 10 - - - -
28/02:00am 11.7 SSW 1 3 1017.8 - 0.0 - - 10 - - - -
28/01:30am 12.3 SSW 3 4 1018.0 - 0.0 - - 10 - - - -
28/01:00am 12.1 SSW 5 6 1018.4 - 0.0 - - 10 - - - -
28/12:30am 12.3 SSW 6 6 1018.6 - 0.0 - - 10 - - - -
 
Date/Time
EST
Temp

°C
Wind Pressure Rain
since 9am
mm
Weather Cloud Vis
km
Sea
Height
m
Swell
Dir
 
Speed
knots
Gust
knots
hPa Trend Height
m
Period
s
Dir
27/11:30pm 12.9 SW 1 4 1019.0 - 0.0 - - 10 - - - -
27/11:00pm 13.5 SSW 3 6 1018.9 - 0.0 - - 10 - - - -
27/10:30pm 13.6 SSW 6 7 1018.9 - 0.0 - - 10 - - - -
27/10:00pm 14.0 SSW 5 5 1018.9 - 0.0 - - 10 - - - -
27/09:30pm 14.3 SSW 7 8 1018.9 - 0.0 - - 10 - - - -
27/09:00pm 14.8 SSW 6 7 1018.7 - 0.0 - - 10 - - - -
27/08:30pm 15.3 SSW 6 7 1018.3 - 0.0 - - 10 - - - -
27/08:00pm 15.6 SSW 6 7 1018.1 - 0.0 - - 10 - - - -
27/07:30pm 16.2 SW 4 5 1017.7 - 0.0 - - 10 - - - -
27/07:00pm 16.9 SW 2 3 1017.3 - 0.0 - - 10 - - - -
27/06:30pm 18.5 CALM 0 0 1016.8 - 0.0 - - 10 - - - -
27/06:00pm 19.9 SE 2 4 1016.6 - 0.0 - - 10 - - - -
27/05:30pm 21.2 ESE 6 9 1016.2 - 0.0 - - 10 - - - -
27/05:00pm 22.7 ESE 8 11 1015.9 - 0.0 - - 10 - - - -
27/04:30pm 23.4 ESE 10 13 1015.6 - 0.0 - - 10 - - - -
27/04:00pm 24.0 ESE 11 17 1015.2 - 0.0 - - 10 - - - -
27/03:30pm 24.4 E 12 16 1015.1 - 0.0 - - 10 - - - -
27/03:00pm 25.1 E 11 15 1015.1 - 0.0 - - 10 - - - -
27/02:30pm 25.1 ESE 11 15 1015.0 - 0.0 - - 10 - - - -
27/02:00pm 25.4 E 13 18 1015.1 - 0.0 - - 10 - - - -
27/01:30pm 24.8 ESE 11 16 1015.4 - 0.0 - - 10 - - - -
27/01:00pm 25.0 E 11 16 1016.0 - 0.0 - - 10 - - - -
27/12:30pm 24.9 E 10 15 1016.5 - 0.0 - - 10 - - - -
27/12:00pm 24.4 ESE 10 14 1017.1 - 0.0 - - 10 - - - -
27/11:30am 23.9 ESE 11 15 1017.8 - 0.0 - - 10 - - - -
27/11:00am 23.2 ESE 11 16 1018.3 - 0.0 - - 10 - - - -
27/10:30am 23.2 ESE 10 16 1018.6 - 0.0 - - 10 - - - -
27/10:00am 23.0 ESE 9 13 1019.1 - 0.0 - - 10 - - - -
27/09:30am 21.9 ESE 11 14 1019.2 - 0.0 - - 10 - - - -
27/09:00am 21.6 SE 10 13 1019.0 - 0.0 - - 10 - - - -
27/08:30am 19.7 SSE 7 11 1018.8 - 0.0 - - 10 - - - -
27/08:00am 16.1 SSE 1 4 1018.6 - 0.0 - - 10 - - - -
27/07:30am 12.0 NNW 2 4 1018.3 - 0.0 - - 10 - - - -
27/07:00am 10.0 NNW 3 3 1017.9 - 0.0 - - 10 - - - -
27/06:30am 9.0 SW 3 4 1017.5 - 0.0 - - 10 - - - -
27/06:00am 9.2 SSW 5 6 1017.1 - 0.0 - - 10 - - - -
27/05:30am 9.0 WSW 3 4 1016.7 - 0.0 - - 10 - - - -
27/05:00am 9.2 CALM 0 0 1016.4 - 0.0 - - 10 - - - -
27/04:30am 9.1 CALM 0 3 1016.1 - 0.0 - - 10 - - - -
27/04:00am 9.9 SW 3 4 1015.8 - 0.0 - - 10 - - - -
27/03:30am 9.4 SW 3 5 1015.8 - 0.0 - - 10 - - - -
27/03:00am 10.1 CALM 0 0 1015.7 - 0.0 - - 10 - - - -
27/02:30am 10.2 CALM 0 0 1015.7 - 0.0 - - 10 - - - -
27/02:00am 11.0 CALM 0 0 1015.6 - 0.0 - - 10 - - - -
27/01:30am 11.6 SSW 2 3 1015.6 - 0.0 - - 10 - - - -
27/01:00am 11.7 WSW 4 5 1015.6 - 0.0 - - 10 - - - -
27/12:30am 13.0 SW 3 4 1015.9 - 0.0 - - 10 - - - -
27/12:00am 13.3 SSW 5 6 1016.1 - 0.0 - - 10 - - - -
 
Date/Time
EST
Temp

°C
Wind Pressure Rain
since 9am
mm
Weather Cloud Vis
km
Sea
Height
m
Swell
Dir
 
Speed
knots
Gust
knots
hPa Trend Height
m
Period
s
Dir
26/11:30pm 13.7 SSW 4 6 1016.3 - 0.0 - - 10 - - - -
26/11:00pm 14.1 SSW 3 4 1016.3 - 0.0 - - 10 - - - -
26/10:30pm 13.8 SW 4 4 1016.4 - 0.0 - - 10 - - - -
26/10:00pm 13.8 WSW 1 4 1016.4 - 0.0 - - 10 - - - -
26/09:30pm 14.4 SW 1 4 1016.4 - 0.0 - - 10 - - - -
26/09:00pm 15.0 WSW 1 3 1016.3 - 0.0 - - 10 - - - -
26/08:30pm 16.0 WSW 3 4 1016.1 - 0.0 - - 10 - - - -
26/08:00pm 16.5 CALM 0 0 1015.7 - 0.0 - - 10 - - - -
26/07:30pm 17.5 CALM 0 0 1015.2 - 0.0 - - 10 - - - -
26/07:00pm 17.3 CALM 0 3 1014.8 - 0.0 - - 10 - - - -
26/06:30pm 19.2 S 6 6 1014.2 - 0.0 - - 10 - - - -
26/06:00pm 21.3 S 5 6 1013.9 - 0.0 - - 10 - - - -
26/05:30pm 23.0 SE 6 8 1013.4 - 0.0 - - 10 - - - -
26/05:00pm 25.5 SE 7 9 1013.0 - 0.0 - - 10 - - - -
26/04:30pm 26.7 ESE 7 10 1012.6 - 0.0 - - 10 - - - -
26/04:00pm 27.3 ESE 7 11 1012.4 - 0.0 - - 10 - - - -
26/03:30pm 27.8 E 7 10 1012.3 - 0.0 - - 10 - - - -
26/03:00pm 28.0 ESE 9 14 1012.3 - 0.0 - - 10 - - - -
26/02:30pm 27.5 ESE 9 13 1012.3 - 0.0 - - 10 - - - -
26/02:00pm 27.9 E 9 13 1012.4 - 0.0 - - 10 - - - -
26/01:30pm 27.3 E 10 14 1012.6 - 0.0 - - 10 - - - -
26/01:00pm 27.9 ENE 9 15 1012.9 - 0.0 - - 10 - - - -
26/12:30pm 27.5 E 5 9 1013.1 - 0.0 - - 10 - - - -
26/12:00pm 27.5 ENE 8 11 1013.5 - 0.0 - - 10 - - - -
26/11:30am 27.3 E 4 7 1014.1 - 0.0 - - 10 - - - -
26/11:00am 26.1 NNW 3 7 1014.5 - 0.0 - - 10 - - - -
26/10:30am 26.5 E 5 7 1014.8 - 0.0 - - 10 - - - -
26/10:00am 26.0 ENE 5 8 1015.0 - 0.0 - - 10 - - - -
26/09:30am 25.1 E 5 8 1014.9 - 0.0 - - 10 - - - -
26/09:00am 24.4 ESE 4 7 1014.7 - 0.0 - - 10 - - - -
26/08:30am 23.3 SW 3 5 1014.3 - 0.0 - - 10 - - - -
26/08:00am 20.7 SE 3 5 1014.2 - 0.0 - - 10 - - - -
26/07:30am 19.8 S 5 8 1014.0 - 0.0 - - 10 - - - -
26/07:00am 15.8 S 5 6 1013.5 - 0.0 - - 10 - - - -
26/06:30am 14.8 WSW 7 9 1013.1 - 0.0 - - 10 - - - -
26/06:00am 15.4 SW 8 9 1012.8 - 0.0 - - 10 - - - -
26/05:30am 13.5 SSW 4 7 1012.4 - 0.0 - - 10 - - - -
26/05:00am 13.3 NNE 2 3 1012.3 - 0.0 - - 10 - - - -
26/04:30am 13.9 CALM 0 3 1011.9 - 0.0 - - 10 - - - -
26/04:00am 15.0 S 2 5 1011.7 - 0.0 - - 10 - - - -
26/03:30am 16.3 S 6 7 1011.6 - 0.0 - - 10 - - - -
26/03:00am 16.0 SW 8 10 1011.5 - 0.0 - - 10 - - - -
26/02:30am 14.9 WNW 6 8 1011.6 - 0.0 - - 10 - - - -
26/02:00am 14.1 WSW 4 5 1011.9 - 0.0 - - 10 - - - -
26/01:30am 15.9 SSW 3 4 1012.0 - 0.0 - - 10 - - - -
26/01:00am 16.0 SSW 2 4 1012.2 - 0.0 - - 10 - - - -
26/12:30am 17.1 NW 2 3 1012.3 - 0.0 - - 10 - - - -
26/12:00am 17.9 NW 1 4 1012.5 - 0.0 - - 10 - - - -
 
Date/Time
EST
Temp

°C
Wind Pressure Rain
since 9am
mm
Weather Cloud Vis
km
Sea
Height
m
Swell
Dir
 
Speed
knots
Gust
knots
hPa Trend Height
m
Period
s
Dir
25/11:30pm 17.3 NW 3 4 1012.5 - 0.0 - - 10 - - - -
25/11:00pm 18.3 CALM 0 0 1012.6 - 0.0 - - 10 - - - -
25/10:30pm 19.1 CALM 0 0 1012.6 - 0.0 - - 10 - - - -
25/10:00pm 19.6 CALM 0 0 1012.8 - 0.0 - - 10 - - - -
25/09:30pm 19.6 CALM 0 0 1012.7 - 0.0 - - 10 - - - -
25/09:00pm 20.1 CALM 0 0 1012.6 - 0.0 - - 10 - - - -
25/08:30pm 21.1 CALM 0 0 1012.5 - 0.0 - - 10 - - - -
25/08:00pm 21.8 CALM 0 0 1012.2 - 0.0 - - 10 - - - -
25/07:30pm 22.5 NNW 4 5 1012.0 - 0.0 - - 10 - - - -
25/07:00pm 23.3 NW 3 4 1011.5 - 0.0 - - 10 - - - -
25/06:30pm 24.4 NNW 4 6 1010.8 - 0.0 - - 10 - - - -
25/06:00pm 25.1 N 4 6 1010.5 - 0.0 - - 10 - - - -
25/05:30pm 26.6 NNE 6 9 1010.1 - 0.0 - - 10 - - - -
25/05:00pm 27.7 NNE 7 9 1009.5 - 0.0 - - 10 - - - -
25/04:30pm 28.8 NNE 7 10 1009.0 - 0.0 - - 10 - - - -
25/04:00pm 29.3 NNE 8 12 1008.6 - 0.0 - - 10 - - - -
25/03:30pm 31.1 NE 6 9 1008.3 - 0.0 - - 10 - - - -
25/03:00pm 32.1 NW 2 7 1008.3 - 0.0 - - 10 - - - -
25/02:30pm 31.4 NE 4 7 1008.3 - 0.0 - - 10 - - - -
25/02:00pm 31.1 N 5 8 1008.6 - 0.0 - - 10 - - - -
25/01:30pm 31.0 ESE 5 6 1009.0 - 0.0 - - 10 - - - -
25/01:00pm 30.8 ENE 6 8 1009.5 - 0.0 - - 10 - - - -
25/12:30pm 30.3 NW 3 5 1009.9 - 0.0 - - 10 - - - -

Other Formats:

Comma delimited format used in spreadsheet applications
http://www.bom.gov.au/fwo/IDQ60701/IDQ60701.94365.axf

JavaScript Object Notation format (JSON) in row-major order
http://www.bom.gov.au/fwo/IDQ60701/IDQ60701.94365.json